Time;durP1;ratioP1;P1;durP2;ratioP2;P2;SDS_P1;SDS_P2;PMS_P1;PMS_P2;Temp;Humidity;BMP_temperature;BMP_pressure;BME280_temperature;BME280_humidity;BME280_pressure;Samples;Min_cycle;Max_cycle;Signal;HPM_P1;HPM_P2
2022/04/14 00:00:03;;;;;;;27.98;25.33;;;17.80;89.20;;;;;;4993495;28;20536;-57
2022/04/14 00:02:28;;;;;;;25.98;23.27;;;17.80;88.90;;;;;;4993790;28;20027;-58
2022/04/14 00:04:54;;;;;;;27.88;25.08;;;17.70;89.10;;;;;;4993284;28;20149;-59
2022/04/14 00:07:20;;;;;;;33.58;26.63;;;17.80;89.10;;;;;;4993687;28;20384;-66
2022/04/14 00:09:45;;;;;;;27.45;24.75;;;17.80;88.70;;;;;;4993356;28;20097;-57
2022/04/14 00:12:11;;;;;;;26.63;24.00;;;17.70;88.80;;;;;;4993519;28;20022;-63
2022/04/14 00:14:37;;;;;;;26.17;23.65;;;17.70;88.80;;;;;;4993393;28;20080;-62
2022/04/14 00:17:03;;;;;;;26.98;24.27;;;17.70;88.80;;;;;;4993440;28;20026;-58
2022/04/14 00:19:28;;;;;;;25.73;23.30;;;17.70;88.90;;;;;;4993581;28;20403;-65
2022/04/14 00:21:54;;;;;;;27.13;24.40;;;17.60;88.90;;;;;;4993143;28;20468;-56
2022/04/14 00:24:19;;;;;;;25.20;22.65;;;17.60;89.10;;;;;;4993275;28;20023;-60
2022/04/14 00:26:45;;;;;;;25.70;23.10;;;17.60;89.00;;;;;;4993307;28;20511;-60
2022/04/14 00:29:11;;;;;;;26.95;24.20;;;17.60;89.00;;;;;;4993256;28;20026;-65
2022/04/14 00:31:37;;;;;;;25.73;23.08;;;17.60;89.00;;;;;;4993470;28;20080;-60
2022/04/14 00:34:03;;;;;;;26.15;23.65;;;17.60;88.90;;;;;;4993501;28;20026;-61
2022/04/14 00:36:28;;;;;;;26.20;23.52;;;17.60;88.70;;;;;;4993214;28;20050;-56
2022/04/14 00:38:54;;;;;;;25.90;23.60;;;17.60;88.80;;;;;;4993271;28;20025;-61
2022/04/14 00:41:20;;;;;;;26.23;23.65;;;17.50;89.00;;;;;;4993186;28;20468;-65
2022/04/14 00:43:51;;;;;;;23.48;20.67;;;17.40;88.80;;;;;;4993102;28;20038;-56
2022/04/14 00:46:17;;;;;;;22.92;20.73;;;17.50;88.70;;;;;;4993096;28;20488;-65
2022/04/14 00:48:44;;;;;;;22.52;20.35;;;17.50;88.60;;;;;;4993666;28;20066;-65
2022/04/14 00:51:10;;;;;;;23.95;21.42;;;17.50;88.60;;;;;;4993180;28;20831;-66
2022/04/14 00:53:37;;;;;;;23.38;21.13;;;17.40;88.60;;;;;;4993009;28;20094;-66
2022/04/14 00:56:04;;;;;;;24.27;21.88;;;17.50;88.60;;;;;;4992998;28;20026;-57
2022/04/14 00:58:29;;;;;;;24.80;22.42;;;17.40;88.70;;;;;;4993338;28;20062;-65
2022/04/14 01:00:55;;;;;;;25.08;22.50;;;17.40;88.70;;;;;;4993010;28;20042;-64
2022/04/14 01:03:22;;;;;;;24.00;21.50;;;17.40;88.70;;;;;;4993058;28;20041;-62
2022/04/14 01:05:48;;;;;;;22.45;20.35;;;17.30;88.70;;;;;;4993120;28;20054;-58
2022/04/14 01:08:17;;;;;;;23.42;21.13;;;17.30;88.70;;;;;;4996073;28;20030;-54
2022/04/14 01:10:48;;;;;;;23.85;21.38;;;17.30;88.60;;;;;;4996633;28;20022;-61
2022/04/14 01:13:18;;;;;;;24.98;22.48;;;17.30;88.60;;;;;;4996540;28;20030;-63
2022/04/14 01:15:45;;;;;;;25.63;23.02;;;17.30;88.60;;;;;;4996480;28;20029;-64
2022/04/14 01:18:10;;;;;;;25.08;22.67;;;17.30;88.60;;;;;;4996358;28;20018;-60
2022/04/14 01:20:37;;;;;;;25.40;22.80;;;17.30;88.50;;;;;;4996442;28;20092;-62
2022/04/14 01:23:04;;;;;;;24.50;22.08;;;17.40;88.30;;;;;;4995993;28;20388;-62
2022/04/14 01:25:30;;;;;;;23.63;21.13;;;17.30;88.40;;;;;;4996281;28;20431;-64
2022/04/14 01:27:56;;;;;;;26.50;23.73;;;17.30;88.60;;;;;;4996338;28;20057;-60
2022/04/14 01:30:22;;;;;;;24.35;21.98;;;17.30;88.60;;;;;;4996312;28;20435;-54
2022/04/14 01:32:48;;;;;;;26.20;23.70;;;17.30;88.50;;;;;;4996147;28;20168;-65
2022/04/14 01:35:14;;;;;;;25.35;22.85;;;17.20;88.50;;;;;;4996145;28;20038;-65
2022/04/14 01:37:39;;;;;;;24.77;22.33;;;17.20;88.40;;;;;;4995672;28;20022;-59
2022/04/14 01:40:06;;;;;;;24.90;22.30;;;17.20;88.40;;;;;;4996147;28;20029;-55
2022/04/14 01:42:31;;;;;;;24.30;21.88;;;17.20;88.50;;;;;;4996115;28;20105;-61
2022/04/14 01:44:57;;;;;;;25.08;22.55;;;17.20;88.50;;;;;;4996017;28;20109;-57
2022/04/14 01:47:22;;;;;;;25.63;22.90;;;17.20;88.40;;;;;;4995833;28;20604;-55
2022/04/14 01:49:48;;;;;;;26.25;23.58;;;17.10;88.50;;;;;;4996042;28;20058;-57
2022/04/14 01:52:13;;;;;;;26.08;23.40;;;17.10;88.30;;;;;;4995521;28;20088;-64
2022/04/14 01:54:39;;;;;;;25.67;22.88;;;17.20;88.20;;;;;;4995873;28;20018;-62
2022/04/14 01:57:05;;;;;;;25.80;23.20;;;17.10;88.30;;;;;;4995801;28;20038;-62
2022/04/14 01:59:30;;;;;;;25.67;22.77;;;17.00;88.50;;;;;;4995718;28;20038;-62
2022/04/14 02:01:56;;;;;;;24.40;21.90;;;17.10;88.60;;;;;;4995859;28;20026;-66
2022/04/14 02:04:21;;;;;;;26.00;23.40;;;17.10;88.60;;;;;;4995472;28;20058;-65
2022/04/14 02:06:47;;;;;;;25.95;23.35;;;17.00;88.70;;;;;;4995505;28;20026;-64
2022/04/14 02:09:13;;;;;;;25.30;22.80;;;17.00;88.60;;;;;;4995355;28;20053;-55
2022/04/14 02:11:38;;;;;;;25.25;22.75;;;17.00;88.40;;;;;;4995847;28;20491;-56
2022/04/14 02:14:04;;;;;;;26.05;23.60;;;17.00;88.30;;;;;;4995371;28;20026;-64
2022/04/14 02:16:29;;;;;;;25.02;22.45;;;17.00;88.70;;;;;;4995504;28;20031;-62
2022/04/14 02:18:55;;;;;;;25.52;22.98;;;16.90;89.30;;;;;;4994392;28;20392;-66
2022/04/14 02:21:20;;;;;;;25.63;23.08;;;16.90;89.50;;;;;;4995228;28;20026;-65
2022/04/14 02:23:46;;;;;;;23.85;21.58;;;16.90;89.00;;;;;;4995167;28;20045;-65
2022/04/14 02:26:12;;;;;;;26.17;23.60;;;16.80;89.00;;;;;;4995284;28;20033;-64
2022/04/14 02:28:38;;;;;;;27.70;24.90;;;16.80;89.00;;;;;;4995193;28;20026;-65
2022/04/14 02:31:03;;;;;;;26.30;23.60;;;16.80;89.30;;;;;;4995365;28;20476;-65
2022/04/14 02:33:29;;;;;;;26.50;24.00;;;16.90;89.40;;;;;;4994780;28;20497;-62
2022/04/14 02:35:54;;;;;;;26.45;23.73;;;16.80;89.40;;;;;;4994782;28;20383;-65
2022/04/14 02:38:20;;;;;;;25.55;22.90;;;16.80;89.20;;;;;;4994909;28;20388;-65
2022/04/14 02:40:45;;;;;;;25.50;22.88;;;16.80;89.40;;;;;;4995160;28;20121;-65
2022/04/14 02:43:11;;;;;;;26.42;23.75;;;16.80;89.50;;;;;;4994777;28;20070;-65
2022/04/14 02:45:36;;;;;;;26.23;23.60;;;16.80;89.30;;;;;;4994803;28;20026;-65
2022/04/14 02:48:02;;;;;;;25.42;23.05;;;16.80;89.00;;;;;;4994804;28;20038;-65
2022/04/14 02:50:28;;;;;;;23.60;21.27;;;16.70;89.00;;;;;;4994494;28;20026;-64
2022/04/14 02:52:56;;;;;;;26.38;23.80;;;16.70;89.00;;;;;;4994895;28;20404;-65
2022/04/14 02:55:22;;;;;;;25.45;22.80;;;16.70;89.10;;;;;;4994684;28;20046;-65
2022/04/14 02:57:49;;;;;;;27.17;24.52;;;16.70;89.00;;;;;;4994778;28;20042;-63
2022/04/14 03:00:15;;;;;;;25.40;23.08;;;16.70;89.20;;;;;;4994462;28;20026;-66
2022/04/14 03:02:41;;;;;;;25.88;23.17;;;16.60;89.20;;;;;;4994674;28;20067;-65
2022/04/14 03:05:08;;;;;;;25.35;22.92;;;16.60;89.10;;;;;;4994238;28;20027;-64
2022/04/14 03:07:34;;;;;;;24.33;21.92;;;16.60;88.90;;;;;;4994355;28;20026;-65
2022/04/14 03:09:59;;;;;;;25.40;22.85;;;16.60;88.90;;;;;;4994348;28;20069;-66
2022/04/14 03:12:25;;;;;;;25.65;22.92;;;16.60;89.10;;;;;;4994433;28;20022;-65
2022/04/14 03:14:50;;;;;;;23.95;21.40;;;16.60;88.90;;;;;;4987934;28;20030;-63
2022/04/14 03:17:17;;;;;;;24.30;21.83;;;16.50;88.90;;;;;;4992617;28;20381;-65
2022/04/14 03:19:43;;;;;;;25.30;22.80;;;16.50;88.90;;;;;;4972588;28;20039;-62
2022/04/14 03:22:09;;;;;;;24.00;21.60;;;16.50;88.80;;;;;;4973509;28;20039;-58
2022/04/14 03:24:35;;;;;;;24.88;22.50;;;16.50;88.80;;;;;;4974557;28;20023;-65
2022/04/14 03:27:00;;;;;;;25.02;22.42;;;16.50;89.10;;;;;;4974739;28;20106;-65
2022/04/14 03:29:32;;;;;;;24.58;22.08;;;16.50;89.20;;;;;;4974474;28;20030;-65
2022/04/14 03:31:58;;;;;;;23.67;21.20;;;16.40;89.70;;;;;;4974704;28;20034;-65
2022/04/14 03:34:24;;;;;;;25.15;22.83;;;16.40;89.00;;;;;;4974172;28;20034;-65
2022/04/14 03:36:49;;;;;;;23.25;20.83;;;16.40;88.90;;;;;;4974693;28;20064;-65
2022/04/14 03:39:15;;;;;;;24.20;22.00;;;16.40;88.90;;;;;;4974527;28;20022;-53
2022/04/14 03:41:41;;;;;;;22.67;20.55;;;16.40;88.80;;;;;;4974661;28;20023;-59
2022/04/14 03:44:07;;;;;;;23.20;20.90;;;16.30;88.80;;;;;;4974552;28;20054;-56
2022/04/14 03:46:32;;;;;;;22.98;20.88;;;16.30;88.50;;;;;;4974419;28;20022;-58
2022/04/14 03:48:58;;;;;;;24.15;21.63;;;16.30;88.60;;;;;;4974331;28;20500;-56
2022/04/14 03:51:24;;;;;;;24.17;21.67;;;16.30;88.50;;;;;;4974034;28;20019;-61
2022/04/14 03:53:49;;;;;;;24.08;21.55;;;16.20;88.60;;;;;;4974375;28;20027;-66
2022/04/14 03:56:15;;;;;;;23.70;21.25;;;16.20;88.60;;;;;;4974170;28;20027;-58
2022/04/14 03:58:41;;;;;;;24.15;21.85;;;16.20;88.40;;;;;;4974395;28;20070;-57
2022/04/14 04:01:06;;;;;;;24.50;22.23;;;16.20;88.40;;;;;;4974270;28;20027;-60
2022/04/14 04:03:32;;;;;;;25.50;23.05;;;16.20;88.20;;;;;;4973881;28;20038;-65
2022/04/14 04:05:57;;;;;;;25.33;22.73;;;16.20;88.50;;;;;;4972873;28;20057;-65
2022/04/14 04:08:23;;;;;;;23.88;21.55;;;16.10;88.30;;;;;;4974287;28;20555;-60
2022/04/14 04:10:48;;;;;;;24.88;22.27;;;16.10;88.40;;;;;;4974174;28;20040;-58
2022/04/14 04:13:14;;;;;;;23.75;21.27;;;16.10;88.40;;;;;;4974117;28;20022;-56
2022/04/14 04:15:39;;;;;;;23.38;21.08;;;16.00;88.30;;;;;;4974125;28;20081;-65
2022/04/14 04:18:06;;;;;;;24.27;21.52;;;16.00;88.30;;;;;;4973922;28;20109;-65
2022/04/14 04:20:32;;;;;;;24.08;21.67;;;16.00;88.40;;;;;;4973907;28;20057;-58
2022/04/14 04:22:57;;;;;;;22.75;20.52;;;16.00;88.20;;;;;;4974170;28;20480;-65
2022/04/14 04:25:23;;;;;;;25.13;22.08;;;16.00;88.10;;;;;;4974061;28;20063;-65
2022/04/14 04:27:49;;;;;;;22.40;20.25;;;16.00;88.30;;;;;;4974129;28;20027;-65
2022/04/14 04:30:16;;;;;;;22.95;20.60;;;16.00;88.20;;;;;;4973938;28;20053;-64
2022/04/14 04:32:42;;;;;;;23.00;20.35;;;15.90;88.10;;;;;;4973822;28;20131;-65
2022/04/14 04:35:08;;;;;;;23.40;21.02;;;15.90;87.90;;;;;;4974007;28;20076;-64
2022/04/14 04:37:34;;;;;;;23.58;21.13;;;16.00;88.10;;;;;;4973751;28;20464;-65
2022/04/14 04:40:00;;;;;;;21.77;19.77;;;15.90;88.00;;;;;;4974095;28;20023;-63
2022/04/14 04:42:25;;;;;;;22.20;19.90;;;15.90;88.00;;;;;;4976072;28;20089;-65
2022/04/14 04:44:52;;;;;;;22.15;19.85;;;15.90;88.10;;;;;;4977411;28;20062;-65
2022/04/14 04:47:20;;;;;;;23.35;20.50;;;15.90;88.20;;;;;;4977671;28;20038;-62
2022/04/14 04:49:46;;;;;;;22.33;19.98;;;15.80;88.20;;;;;;4977616;28;20522;-65
2022/04/14 04:52:11;;;;;;;22.13;18.70;;;15.80;88.10;;;;;;4977628;28;20022;-59
2022/04/14 04:54:37;;;;;;;21.45;19.23;;;15.80;88.20;;;;;;4977366;28;20038;-65
2022/04/14 04:57:02;;;;;;;22.75;20.48;;;15.80;88.20;;;;;;4977698;28;20067;-63
2022/04/14 04:59:28;;;;;;;23.10;20.17;;;15.80;88.40;;;;;;4977130;28;20038;-63
2022/04/14 05:01:53;;;;;;;21.52;19.42;;;15.70;88.40;;;;;;4984898;28;20037;-65
2022/04/14 05:04:19;;;;;;;22.60;20.30;;;15.80;88.40;;;;;;4996572;28;20068;-64
2022/04/14 05:06:45;;;;;;;20.55;18.35;;;15.70;88.40;;;;;;4994484;28;20022;-59
2022/04/14 05:09:10;;;;;;;20.60;18.50;;;15.70;88.40;;;;;;4995758;28;20029;-62
2022/04/14 05:11:36;;;;;;;21.17;18.95;;;15.70;88.30;;;;;;4996439;28;20030;-65
2022/04/14 05:14:01;;;;;;;22.33;19.00;;;15.70;88.40;;;;;;4996322;28;20023;-60
2022/04/14 05:16:27;;;;;;;21.45;19.08;;;15.70;88.40;;;;;;4996241;28;20464;-63
2022/04/14 05:18:53;;;;;;;20.25;18.13;;;15.60;88.50;;;;;;4996454;28;20403;-63
2022/04/14 05:21:19;;;;;;;22.40;18.52;;;15.70;88.80;;;;;;4996535;28;20030;-65
2022/04/14 05:23:44;;;;;;;18.95;17.10;;;15.70;88.60;;;;;;4996144;28;20047;-65
2022/04/14 05:26:10;;;;;;;21.25;17.95;;;15.60;88.70;;;;;;4996321;28;20026;-66
2022/04/14 05:28:35;;;;;;;19.45;17.45;;;15.60;88.70;;;;;;4995988;28;20026;-65
2022/04/14 05:31:01;;;;;;;19.23;16.95;;;15.60;88.60;;;;;;4996272;28;20384;-65
2022/04/14 05:33:27;;;;;;;19.60;17.17;;;15.60;88.80;;;;;;4995929;28;20081;-66
2022/04/14 05:35:53;;;;;;;20.50;18.40;;;15.60;88.70;;;;;;4995948;28;20019;-66
2022/04/14 05:38:18;;;;;;;20.05;17.02;;;15.60;88.80;;;;;;4996134;28;20062;-66
2022/04/14 05:40:45;;;;;;;19.02;16.88;;;15.50;89.00;;;;;;4996113;28;20150;-63
2022/04/14 05:43:22;;;;;;;18.63;16.90;;;15.50;89.20;;;;;;4995752;28;20045;-65
2022/04/14 05:45:48;;;;;;;19.55;17.27;;;15.50;89.20;;;;;;4995877;28;20022;-65
2022/04/14 05:48:15;;;;;;;22.42;17.60;;;15.50;89.40;;;;;;4996349;28;20026;-59
2022/04/14 05:50:45;;;;;;;17.52;15.13;;;15.50;89.50;;;;;;4995861;28;20026;-65
2022/04/14 05:53:11;;;;;;;20.48;15.27;;;15.50;89.70;;;;;;4994728;28;20027;-65
2022/04/14 05:55:37;;;;;;;16.17;14.57;;;15.50;89.60;;;;;;4995897;28;20033;-65
2022/04/14 05:58:03;;;;;;;19.02;15.40;;;15.60;89.80;;;;;;4995517;28;20388;-61
2022/04/14 06:00:33;;;;;;;16.67;14.93;;;15.50;90.00;;;;;;4995624;28;20037;-65
2022/04/14 06:03:00;;;;;;;17.60;13.32;;;15.60;90.00;;;;;;4995635;28;20026;-66
2022/04/14 06:05:29;;;;;;;14.68;13.25;;;15.50;90.30;;;;;;4995772;28;20058;-64
2022/04/14 06:07:56;;;;;;;14.75;13.23;;;15.60;90.80;;;;;;4995618;28;20023;-66
2022/04/14 06:10:23;;;;;;;18.20;13.38;;;15.70;90.70;;;;;;4995663;28;20030;-65
2022/04/14 06:12:49;;;;;;;17.55;12.68;;;15.70;90.60;;;;;;4994995;28;20026;-66
2022/04/14 06:15:15;;;;;;;13.93;11.77;;;15.80;90.60;;;;;;4995716;28;20037;-66
2022/04/14 06:17:42;;;;;;;12.65;11.07;;;15.80;90.60;;;;;;4995478;28;20030;-66
2022/04/14 06:20:09;;;;;;;14.55;11.70;;;15.90;90.10;;;;;;4995485;28;20125;-65
2022/04/14 06:22:39;;;;;;;18.80;12.38;;;15.90;90.10;;;;;;4995425;28;20030;-66
2022/04/14 06:25:22;;;;;;;17.05;13.48;;;15.90;90.10;;;;;;4995190;28;20033;-65
2022/04/14 06:27:49;;;;;;;15.27;13.07;;;15.90;90.20;;;;;;4995077;28;20037;-65
2022/04/14 06:30:16;;;;;;;15.65;11.43;;;16.00;90.00;;;;;;4995307;28;20026;-66
2022/04/14 06:32:54;;;;;;;18.40;13.40;;;16.10;89.90;;;;;;4995014;28;20080;-65
2022/04/14 06:35:19;;;;;;;16.25;13.07;;;16.10;89.90;;;;;;4995053;28;20022;-64
2022/04/14 06:37:45;;;;;;;15.23;13.30;;;16.10;89.90;;;;;;4994948;28;20499;-66
2022/04/14 06:40:11;;;;;;;14.60;12.98;;;16.20;90.00;;;;;;4994626;28;20018;-66
2022/04/14 06:42:36;;;;;;;16.60;13.18;;;16.20;90.00;;;;;;4994384;28;20396;-62
2022/04/14 06:45:02;;;;;;;17.55;14.73;;;16.20;90.00;;;;;;4994542;28;20026;-66
2022/04/14 06:47:28;;;;;;;15.82;13.15;;;16.30;90.10;;;;;;4994727;28;20034;-63
2022/04/14 06:49:54;;;;;;;18.75;13.00;;;16.30;90.00;;;;;;4994634;28;20031;-58
2022/04/14 06:52:21;;;;;;;18.08;14.82;;;16.40;89.80;;;;;;4994657;28;20493;-65
2022/04/14 06:54:46;;;;;;;15.20;12.70;;;16.40;89.40;;;;;;4994254;28;20041;-58
2022/04/14 06:57:12;;;;;;;15.88;12.45;;;16.50;89.30;;;;;;4994221;28;20032;-66
2022/04/14 06:59:37;;;;;;;19.67;13.43;;;16.50;89.50;;;;;;4994513;28;20109;-60
2022/04/14 07:02:03;;;;;;;19.13;12.98;;;16.60;89.70;;;;;;4994518;28;20027;-66
2022/04/14 07:04:28;;;;;;;17.52;13.35;;;16.60;89.50;;;;;;4994198;28;20030;-66
2022/04/14 07:06:55;;;;;;;19.00;11.95;;;16.70;89.80;;;;;;4994533;28;20031;-65
2022/04/14 07:09:21;;;;;;;15.60;11.90;;;16.70;89.40;;;;;;4994261;28;20045;-64
2022/04/14 07:11:46;;;;;;;16.92;12.52;;;16.80;89.60;;;;;;4994114;28;20034;-66
2022/04/14 07:14:14;;;;;;;20.35;12.48;;;16.80;90.00;;;;;;4994445;28;20026;-59
2022/04/14 07:16:40;;;;;;;19.33;13.02;;;16.90;89.60;;;;;;4994337;28;20435;-65
2022/04/14 07:19:06;;;;;;;18.73;13.25;;;16.90;89.00;;;;;;4994132;28;20026;-56
2022/04/14 07:21:31;;;;;;;15.02;13.43;;;17.00;89.50;;;;;;4994141;28;20049;-61
2022/04/14 07:23:57;;;;;;;20.15;12.55;;;17.00;89.20;;;;;;4994123;28;20537;-61
2022/04/14 07:26:23;;;;;;;15.60;12.25;;;17.10;89.70;;;;;;4993836;28;20533;-61
2022/04/14 07:28:48;;;;;;;18.08;11.75;;;17.10;89.50;;;;;;4994191;28;20380;-64
2022/04/14 07:31:14;;;;;;;14.07;10.38;;;17.10;89.40;;;;;;4993970;28;20022;-66
2022/04/14 07:33:40;;;;;;;14.65;11.63;;;17.20;88.90;;;;;;4994080;28;20028;-64
2022/04/14 07:36:05;;;;;;;14.57;9.45;;;17.20;89.70;;;;;;4976458;28;20105;-62
2022/04/14 07:38:31;;;;;;;20.08;11.45;;;17.30;88.30;;;;;;4994078;28;20038;-66
2022/04/14 07:40:56;;;;;;;14.95;10.63;;;17.30;88.60;;;;;;4993431;28;20026;-66
2022/04/14 07:43:23;;;;;;;15.63;11.30;;;17.30;88.20;;;;;;4993872;28;20045;-61
2022/04/14 07:45:49;;;;;;;13.68;8.82;;;17.40;88.40;;;;;;4993509;28;20025;-58
2022/04/14 07:48:16;;;;;;;16.35;10.60;;;17.40;86.80;;;;;;4993818;28;20036;-67
2022/04/14 07:50:42;;;;;;;10.82;7.70;;;17.50;88.50;;;;;;4993579;28;20022;-66
2022/04/14 07:53:08;;;;;;;17.38;10.68;;;17.50;86.70;;;;;;4993775;28;20116;-66
2022/04/14 07:55:35;;;;;;;15.05;11.18;;;17.50;87.40;;;;;;4993575;28;20101;-59
2022/04/14 07:58:05;;;;;;;17.92;10.43;;;17.60;87.50;;;;;;4993739;28;20033;-54
2022/04/14 08:00:31;;;;;;;16.08;9.18;;;17.60;87.20;;;;;;4976157;28;20379;-63
2022/04/14 08:02:58;;;;;;;8.40;6.65;;;17.70;87.20;;;;;;4993622;28;20031;-66
2022/04/14 08:05:28;;;;;;;16.13;10.38;;;17.70;85.60;;;;;;4993574;28;20023;-66
2022/04/14 08:07:54;;;;;;;19.38;10.75;;;17.80;86.10;;;;;;4993477;28;20035;-56
2022/04/14 08:10:20;;;;;;;12.57;10.60;;;17.80;87.20;;;;;;4993672;28;20384;-65
2022/04/14 08:12:47;;;;;;;14.43;11.45;;;17.80;87.60;;;;;;4993585;28;20081;-66
2022/04/14 08:15:12;;;;;;;18.58;12.05;;;17.90;87.10;;;;;;4993488;28;20033;-62
2022/04/14 08:17:39;;;;;;;14.40;9.90;;;17.90;87.20;;;;;;4996638;28;20121;-63
2022/04/14 08:20:05;;;;;;;22.67;13.15;;;18.00;86.10;;;;;;4997614;28;20031;-64
2022/04/14 08:22:55;;;;;;;20.95;13.23;;;18.00;87.30;;;;;;4997048;28;20030;-66
2022/04/14 08:25:25;;;;;;;25.30;16.42;;;18.10;86.80;;;;;;4997436;28;20026;-61
2022/04/14 08:27:52;;;;;;;25.50;17.05;;;18.10;87.40;;;;;;4997515;28;20077;-66
2022/04/14 08:30:20;;;;;;;9.32;8.32;;;18.10;87.20;;;;;;4997465;28;20026;-66
2022/04/14 08:32:47;;;;;;;22.48;13.13;;;18.10;86.00;;;;;;4997479;28;20027;-65
2022/04/14 08:35:13;;;;;;;15.82;11.32;;;18.20;86.20;;;;;;4997402;28;20018;-62
2022/04/14 08:37:40;;;;;;;9.40;5.65;;;18.20;85.10;;;;;;4979524;28;20022;-56
2022/04/14 08:40:07;;;;;;;14.18;9.15;;;18.30;83.30;;;;;;4997087;28;20117;-65
2022/04/14 08:42:39;;;;;;;8.93;5.47;;;18.30;83.80;;;;;;4997027;28;20046;-66
2022/04/14 08:45:07;;;;;;;15.60;9.30;;;18.30;82.40;;;;;;4997221;28;20053;-66
2022/04/14 08:47:36;;;;;;;15.43;8.23;;;18.30;82.70;;;;;;4997359;28;20386;-55
2022/04/14 08:50:07;;;;;;;22.55;12.90;;;18.30;82.90;;;;;;4997163;28;20018;-66
2022/04/14 08:52:37;;;;;;;11.85;6.70;;;18.40;84.00;;;;;;4996669;28;20026;-66
2022/04/14 08:55:05;;;;;;;13.13;6.82;;;18.40;82.50;;;;;;4997014;28;20105;-67
2022/04/14 08:57:32;;;;;;;11.13;6.85;;;18.40;82.50;;;;;;4996665;28;20026;-66
2022/04/14 08:59:59;;;;;;;11.98;7.55;;;18.50;82.40;;;;;;4997122;28;20072;-58
2022/04/14 09:02:26;;;;;;;13.32;7.57;;;18.50;82.20;;;;;;4996938;28;20037;-63
2022/04/14 09:04:52;;;;;;;11.55;6.35;;;18.50;82.80;;;;;;4996931;28;20025;-66
2022/04/14 09:07:18;;;;;;;10.45;4.95;;;18.50;82.40;;;;;;4978831;28;20030;-58
2022/04/14 09:09:45;;;;;;;9.57;6.82;;;18.50;81.00;;;;;;4996608;28;20030;-61
2022/04/14 09:12:11;;;;;;;9.75;4.88;;;18.60;82.50;;;;;;4996652;28;20464;-66
2022/04/14 09:14:37;;;;;;;10.43;7.32;;;18.60;80.70;;;;;;4996751;28;20030;-66
2022/04/14 09:17:07;;;;;;;5.93;3.58;;;18.60;82.10;;;;;;4996082;28;20027;-54
2022/04/14 09:19:34;;;;;;;8.77;5.78;;;18.70;80.00;;;;;;4996343;28;20496;-66
2022/04/14 09:22:13;;;;;;;7.70;3.70;;;18.70;81.10;;;;;;4995961;28;20107;-58
2022/04/14 09:24:43;;;;;;;6.85;4.45;;;18.70;80.00;;;;;;4996458;28;20041;-65
2022/04/14 09:27:21;;;;;;;14.50;8.68;;;18.70;79.70;;;;;;4996107;28;20030;-67
2022/04/14 09:29:48;;;;;;;7.55;6.28;;;18.70;82.40;;;;;;4996307;28;20042;-66
2022/04/14 09:32:30;;;;;;;13.13;8.27;;;18.80;81.70;;;;;;4996213;28;20034;-64
2022/04/14 09:34:57;;;;;;;16.67;8.25;;;18.80;82.70;;;;;;4995933;28;20676;-66
2022/04/14 09:37:23;;;;;;;12.10;6.55;;;18.80;82.70;;;;;;4996283;28;20030;-65
2022/04/14 09:40:00;;;;;;;7.03;4.43;;;18.90;81.70;;;;;;4996264;28;20097;-63
2022/04/14 09:42:32;;;;;;;7.00;4.40;;;18.90;80.60;;;;;;4996106;28;20030;-60
2022/04/14 09:45:17;;;;;;;9.73;7.25;;;18.80;80.30;;;;;;4996116;28;20026;-57
2022/04/14 09:47:42;;;;;;;6.00;3.53;;;18.90;80.80;;;;;;4996106;28;20073;-67
2022/04/14 09:50:39;;;;;;;11.18;5.53;;;18.90;79.70;;;;;;4995919;28;20476;-62
2022/04/14 09:53:16;;;;;;;9.38;5.80;;;18.90;80.10;;;;;;4995843;28;20033;-66
2022/04/14 09:55:55;;;;;;;12.07;7.88;;;19.00;80.10;;;;;;4995962;28;20026;-63
2022/04/14 09:58:26;;;;;;;13.93;7.93;;;19.00;81.70;;;;;;4995636;28;20546;-66
2022/04/14 10:00:53;;;;;;;9.02;5.20;;;19.00;81.40;;;;;;4995653;28;20034;-65
2022/04/14 10:03:23;;;;;;;9.43;6.65;;;19.00;80.30;;;;;;4995673;28;20497;-66
2022/04/14 10:05:51;;;;;;;8.00;5.82;;;19.00;80.30;;;;;;4995315;28;20033;-65
2022/04/14 10:08:17;;;;;;;5.93;4.18;;;19.10;80.60;;;;;;4995660;28;20074;-65
2022/04/14 10:10:45;;;;;;;7.60;5.40;;;19.10;79.20;;;;;;4995678;28;20081;-63
2022/04/14 10:13:15;;;;;;;7.63;3.78;;;19.10;79.60;;;;;;4995421;28;20023;-66
2022/04/14 10:15:43;;;;;;;13.60;8.70;;;19.10;78.40;;;;;;4995572;28;20037;-66
2022/04/14 10:18:11;;;;;;;17.10;11.00;;;19.10;80.10;;;;;;4995181;28;20034;-60
2022/04/14 10:20:38;;;;;;;15.95;11.30;;;19.10;81.20;;;;;;4995073;28;20031;-56
2022/04/14 10:23:04;;;;;;;9.05;6.10;;;19.20;81.30;;;;;;4995007;28;20030;-65
2022/04/14 10:25:30;;;;;;;9.77;7.10;;;19.20;79.60;;;;;;4995269;28;20110;-56
2022/04/14 10:27:58;;;;;;;15.35;9.15;;;19.20;80.00;;;;;;4995191;28;20061;-66
2022/04/14 10:30:25;;;;;;;6.18;4.05;;;19.20;80.30;;;;;;4995199;28;20138;-66
2022/04/14 10:32:55;;;;;;;4.82;2.60;;;19.20;78.70;;;;;;4994619;28;20077;-62
2022/04/14 10:35:26;;;;;;;13.20;9.75;;;19.20;78.00;;;;;;4994752;28;20041;-65
2022/04/14 10:38:18;;;;;;;16.58;11.23;;;19.20;80.70;;;;;;4995290;28;20060;-66
2022/04/14 10:40:50;;;;;;;18.63;11.30;;;19.30;80.30;;;;;;4980487;28;20034;-56
2022/04/14 10:43:20;;;;;;;14.38;9.77;;;19.30;80.20;;;;;;4995000;28;20092;-66
2022/04/14 10:45:54;;;;;;;11.70;8.10;;;19.30;80.00;;;;;;4994754;28;20101;-66
2022/04/14 10:48:49;;;;;;;11.48;6.55;;;19.30;79.60;;;;;;4995014;28;20031;-66
2022/04/14 10:51:29;;;;;;;11.63;6.30;;;19.40;79.00;;;;;;4978159;28;20038;-66
2022/04/14 10:54:02;;;;;;;7.10;5.22;;;19.40;78.50;;;;;;4994626;28;20049;-66
2022/04/14 10:56:33;;;;;;;6.95;4.43;;;19.40;78.40;;;;;;4977408;28;20389;-65
2022/04/14 10:59:00;;;;;;;7.05;4.43;;;19.40;78.30;;;;;;4994440;28;20026;-58
2022/04/14 11:01:45;;;;;;;5.90;2.97;;;19.40;78.30;;;;;;4994552;28;20026;-66
2022/04/14 11:04:32;;;;;;;10.05;4.70;;;19.40;77.80;;;;;;4994363;28;20097;-66
2022/04/14 11:07:10;;;;;;;7.25;5.28;;;19.40;78.20;;;;;;4994640;28;20018;-54
2022/04/14 11:09:41;;;;;;;9.65;5.45;;;19.40;78.40;;;;;;4994499;28;20026;-60
2022/04/14 11:12:21;;;;;;;11.07;6.10;;;19.40;78.30;;;;;;4994514;28;20026;-66
2022/04/14 11:14:58;;;;;;;8.00;5.45;;;19.40;78.10;;;;;;4994344;28;20022;-66
2022/04/14 11:17:40;;;;;;;10.32;7.10;;;19.50;77.90;;;;;;4994012;28;20029;-63
2022/04/14 11:20:15;;;;;;;11.25;7.72;;;19.50;79.10;;;;;;4994153;28;20463;-63
2022/04/14 11:23:02;;;;;;;11.88;9.20;;;19.50;78.40;;;;;;4976783;28;20040;-65
2022/04/14 11:25:41;;;;;;;12.15;8.90;;;19.50;78.30;;;;;;4994228;28;20502;-66
2022/04/14 11:28:22;;;;;;;12.82;9.63;;;19.50;78.50;;;;;;4994175;28;20022;-65
2022/04/14 11:31:17;;;;;;;13.93;9.10;;;19.60;78.40;;;;;;4993990;28;20026;-66
2022/04/14 11:33:47;;;;;;;13.90;9.68;;;19.50;78.20;;;;;;4984799;28;20036;-61
2022/04/14 11:36:15;;;;;;;14.80;10.23;;;19.60;78.90;;;;;;4994239;28;20026;-59
2022/04/14 11:38:55;;;;;;;14.27;9.52;;;19.50;79.20;;;;;;4994212;28;20021;-65
2022/04/14 11:41:46;;;;;;;14.20;9.88;;;19.60;79.00;;;;;;4994058;28;20037;-64
2022/04/14 11:44:22;;;;;;;12.07;9.75;;;19.60;79.00;;;;;;4993747;28;20038;-65
2022/04/14 11:46:50;;;;;;;11.75;9.60;;;19.60;79.30;;;;;;4993419;28;20054;-65
2022/04/14 11:49:21;;;;;;;13.43;9.30;;;19.60;79.30;;;;;;4993956;28;20038;-66
2022/04/14 11:51:48;;;;;;;12.70;8.57;;;19.60;79.30;;;;;;4993889;28;20018;-59
2022/04/14 11:54:26;;;;;;;15.18;9.88;;;19.60;78.70;;;;;;4993704;28;20034;-65
2022/04/14 11:56:56;;;;;;;11.85;9.48;;;19.70;78.70;;;;;;4993553;28;20105;-63
2022/04/14 11:59:35;;;;;;;12.18;8.73;;;19.70;78.90;;;;;;4993920;28;20096;-66
2022/04/14 12:02:06;;;;;;;14.65;8.10;;;19.70;78.70;;;;;;4993417;28;20034;-66
2022/04/14 12:04:40;;;;;;;13.40;9.15;;;19.70;78.40;;;;;;4993684;28;20065;-66
2022/04/14 12:07:07;;;;;;;8.65;7.00;;;19.70;78.30;;;;;;4993691;28;20029;-64
2022/04/14 12:09:33;;;;;;;12.30;6.82;;;19.70;78.00;;;;;;4993681;28;20380;-64
2022/04/14 12:12:12;;;;;;;11.10;7.75;;;19.70;77.80;;;;;;4993521;28;20019;-66
2022/04/14 12:14:48;;;;;;;8.90;6.82;;;19.70;77.80;;;;;;4993652;28;20041;-65
2022/04/14 12:17:22;;;;;;;10.35;6.88;;;19.70;77.70;;;;;;4993487;28;20027;-66
2022/04/14 12:19:52;;;;;;;10.82;6.72;;;19.70;78.00;;;;;;4993360;28;20088;-65
2022/04/14 12:22:18;;;;;;;10.20;6.35;;;19.80;77.80;;;;;;4993615;28;20421;-62
2022/04/14 12:24:52;;;;;;;9.43;6.45;;;19.80;77.70;;;;;;4993318;28;20030;-66
2022/04/14 12:27:37;;;;;;;11.02;6.55;;;19.80;77.90;;;;;;4993310;28;20500;-66
2022/04/14 12:30:16;;;;;;;10.57;6.95;;;19.80;77.10;;;;;;4993220;28;20035;-66
2022/04/14 12:32:46;;;;;;;9.32;6.88;;;19.80;76.80;;;;;;4993338;28;20057;-66
2022/04/14 12:35:29;;;;;;;8.90;6.22;;;19.80;77.10;;;;;;4993434;28;20097;-66